sensor_id;sensor_type;location;lat;lon;timestamp;temperature;humidity
74416;SHT31;62850;42.428;25.618;2023-07-30T00:01:55;24.07;46.09
74416;SHT31;62850;42.428;25.618;2023-07-30T00:04:20;24.04;46.74
74416;SHT31;62850;42.428;25.618;2023-07-30T00:06:46;23.92;47.01
74416;SHT31;62850;42.428;25.618;2023-07-30T00:09:12;23.81;47.10
74416;SHT31;62850;42.428;25.618;2023-07-30T00:11:37;23.84;47.54
74416;SHT31;62850;42.428;25.618;2023-07-30T00:14:03;23.74;47.49
74416;SHT31;62850;42.428;25.618;2023-07-30T00:16:28;23.77;48.10
74416;SHT31;62850;42.428;25.618;2023-07-30T00:18:54;23.67;48.54
74416;SHT31;62850;42.428;25.618;2023-07-30T00:21:19;23.69;48.68
74416;SHT31;62850;42.428;25.618;2023-07-30T00:23:44;23.66;47.94
74416;SHT31;62850;42.428;25.618;2023-07-30T00:26:10;23.63;48.53
74416;SHT31;62850;42.428;25.618;2023-07-30T00:28:35;23.60;48.45
74416;SHT31;62850;42.428;25.618;2023-07-30T00:31:01;23.53;48.85
74416;SHT31;62850;42.428;25.618;2023-07-30T00:33:26;23.45;48.97
74416;SHT31;62850;42.428;25.618;2023-07-30T00:35:52;23.47;48.90
74416;SHT31;62850;42.428;25.618;2023-07-30T00:38:18;23.47;48.97
74416;SHT31;62850;42.428;25.618;2023-07-30T00:40:44;23.28;49.77
74416;SHT31;62850;42.428;25.618;2023-07-30T00:43:09;23.26;49.65
74416;SHT31;62850;42.428;25.618;2023-07-30T00:45:36;23.28;49.00
74416;SHT31;62850;42.428;25.618;2023-07-30T00:48:01;23.30;49.23
74416;SHT31;62850;42.428;25.618;2023-07-30T00:50:27;23.28;49.68
74416;SHT31;62850;42.428;25.618;2023-07-30T00:52:53;23.22;49.73
74416;SHT31;62850;42.428;25.618;2023-07-30T00:55:18;23.26;49.01
74416;SHT31;62850;42.428;25.618;2023-07-30T00:57:44;23.22;49.33
74416;SHT31;62850;42.428;25.618;2023-07-30T01:00:11;23.15;49.60
74416;SHT31;62850;42.428;25.618;2023-07-30T01:02:37;23.20;49.16
74416;SHT31;62850;42.428;25.618;2023-07-30T01:05:02;23.16;48.87
74416;SHT31;62850;42.428;25.618;2023-07-30T01:07:31;23.23;48.85
74416;SHT31;62850;42.428;25.618;2023-07-30T01:09:57;23.32;49.10
74416;SHT31;62850;42.428;25.618;2023-07-30T01:12:23;23.32;49.41
74416;SHT31;62850;42.428;25.618;2023-07-30T01:14:50;23.29;49.04
74416;SHT31;62850;42.428;25.618;2023-07-30T01:17:16;23.29;49.05
74416;SHT31;62850;42.428;25.618;2023-07-30T01:19:41;23.29;50.03
74416;SHT31;62850;42.428;25.618;2023-07-30T01:22:07;23.26;49.67
74416;SHT31;62850;42.428;25.618;2023-07-30T01:24:32;23.25;49.44
74416;SHT31;62850;42.428;25.618;2023-07-30T01:27:04;23.09;50.01
74416;SHT31;62850;42.428;25.618;2023-07-30T01:29:52;23.09;49.96
74416;SHT31;62850;42.428;25.618;2023-07-30T01:32:25;23.04;50.23
74416;SHT31;62850;42.428;25.618;2023-07-30T01:34:53;22.97;50.83
74416;SHT31;62850;42.428;25.618;2023-07-30T01:37:19;22.81;50.82
74416;SHT31;62850;42.428;25.618;2023-07-30T01:39:48;22.84;50.26
74416;SHT31;62850;42.428;25.618;2023-07-30T01:42:13;22.78;50.71
74416;SHT31;62850;42.428;25.618;2023-07-30T01:44:39;22.87;51.25
74416;SHT31;62850;42.428;25.618;2023-07-30T01:47:05;22.83;51.28
74416;SHT31;62850;42.428;25.618;2023-07-30T01:49:30;22.78;51.39
74416;SHT31;62850;42.428;25.618;2023-07-30T01:51:55;22.83;51.28
74416;SHT31;62850;42.428;25.618;2023-07-30T01:54:21;22.77;51.37
74416;SHT31;62850;42.428;25.618;2023-07-30T01:56:47;22.78;51.39
74416;SHT31;62850;42.428;25.618;2023-07-30T01:59:12;22.72;51.50
74416;SHT31;62850;42.428;25.618;2023-07-30T02:01:37;22.61;52.03
74416;SHT31;62850;42.428;25.618;2023-07-30T02:04:03;22.57;52.20
74416;SHT31;62850;42.428;25.618;2023-07-30T02:06:29;22.56;52.34
74416;SHT31;62850;42.428;25.618;2023-07-30T02:08:54;22.50;52.41
74416;SHT31;62850;42.428;25.618;2023-07-30T02:11:19;22.39;52.92
74416;SHT31;62850;42.428;25.618;2023-07-30T02:13:45;22.46;52.74
74416;SHT31;62850;42.428;25.618;2023-07-30T02:16:10;22.43;53.03
74416;SHT31;62850;42.428;25.618;2023-07-30T02:18:36;22.35;53.55
74416;SHT31;62850;42.428;25.618;2023-07-30T02:21:02;22.30;53.22
74416;SHT31;62850;42.428;25.618;2023-07-30T02:23:28;22.32;52.86
74416;SHT31;62850;42.428;25.618;2023-07-30T02:25:53;22.28;53.23
74416;SHT31;62850;42.428;25.618;2023-07-30T02:28:19;22.32;52.92
74416;SHT31;62850;42.428;25.618;2023-07-30T02:30:44;22.30;53.02
74416;SHT31;62850;42.428;25.618;2023-07-30T02:33:09;22.24;53.20
74416;SHT31;62850;42.428;25.618;2023-07-30T02:35:35;22.19;53.42
74416;SHT31;62850;42.428;25.618;2023-07-30T02:38:00;22.08;54.07
74416;SHT31;62850;42.428;25.618;2023-07-30T02:40:26;22.05;53.84
74416;SHT31;62850;42.428;25.618;2023-07-30T02:42:51;22.06;53.55
74416;SHT31;62850;42.428;25.618;2023-07-30T02:45:17;22.03;53.52
74416;SHT31;62850;42.428;25.618;2023-07-30T02:47:43;22.05;53.70
74416;SHT31;62850;42.428;25.618;2023-07-30T02:50:09;21.95;54.07
74416;SHT31;62850;42.428;25.618;2023-07-30T02:52:34;21.83;54.51
74416;SHT31;62850;42.428;25.618;2023-07-30T02:55:00;21.88;54.33
74416;SHT31;62850;42.428;25.618;2023-07-30T02:57:25;21.85;54.50
74416;SHT31;62850;42.428;25.618;2023-07-30T02:59:51;21.85;54.20
74416;SHT31;62850;42.428;25.618;2023-07-30T03:02:16;21.85;54.18
74416;SHT31;62850;42.428;25.618;2023-07-30T03:04:41;21.83;54.26
74416;SHT31;62850;42.428;25.618;2023-07-30T03:07:08;21.78;54.35
74416;SHT31;62850;42.428;25.618;2023-07-30T03:09:34;21.78;54.24
74416;SHT31;62850;42.428;25.618;2023-07-30T03:11:59;21.77;54.54
74416;SHT31;62850;42.428;25.618;2023-07-30T03:14:25;21.68;54.82
74416;SHT31;62850;42.428;25.618;2023-07-30T03:16:50;21.65;54.60
74416;SHT31;62850;42.428;25.618;2023-07-30T03:19:16;21.57;55.00
74416;SHT31;62850;42.428;25.618;2023-07-30T03:21:42;21.52;54.99
74416;SHT31;62850;42.428;25.618;2023-07-30T03:24:08;21.45;55.49
74416;SHT31;62850;42.428;25.618;2023-07-30T03:26:33;21.45;55.72
74416;SHT31;62850;42.428;25.618;2023-07-30T03:28:59;21.45;55.60
74416;SHT31;62850;42.428;25.618;2023-07-30T03:31:25;21.48;55.47
74416;SHT31;62850;42.428;25.618;2023-07-30T03:33:50;21.52;55.07
74416;SHT31;62850;42.428;25.618;2023-07-30T03:36:16;21.50;55.27
74416;SHT31;62850;42.428;25.618;2023-07-30T03:38:42;21.51;55.48
74416;SHT31;62850;42.428;25.618;2023-07-30T03:41:08;21.50;55.52
74416;SHT31;62850;42.428;25.618;2023-07-30T03:43:34;21.50;55.56
74416;SHT31;62850;42.428;25.618;2023-07-30T03:46:00;21.54;54.60
74416;SHT31;62850;42.428;25.618;2023-07-30T03:48:26;21.50;55.43
74416;SHT31;62850;42.428;25.618;2023-07-30T03:50:55;21.59;55.56
74416;SHT31;62850;42.428;25.618;2023-07-30T03:53:21;21.55;55.40
74416;SHT31;62850;42.428;25.618;2023-07-30T03:55:46;21.59;55.73
74416;SHT31;62850;42.428;25.618;2023-07-30T03:58:12;21.75;55.22
74416;SHT31;62850;42.428;25.618;2023-07-30T04:00:38;21.82;55.05
74416;SHT31;62850;42.428;25.618;2023-07-30T04:03:04;21.82;55.10
74416;SHT31;62850;42.428;25.618;2023-07-30T04:05:30;21.88;55.11
74416;SHT31;62850;42.428;25.618;2023-07-30T04:07:55;21.95;55.25
74416;SHT31;62850;42.428;25.618;2023-07-30T04:10:22;22.05;55.32
74416;SHT31;62850;42.428;25.618;2023-07-30T04:12:47;22.08;55.20
74416;SHT31;62850;42.428;25.618;2023-07-30T04:15:14;22.14;55.40
74416;SHT31;62850;42.428;25.618;2023-07-30T04:17:40;22.21;55.24
74416;SHT31;62850;42.428;25.618;2023-07-30T04:20:06;22.30;55.11
74416;SHT31;62850;42.428;25.618;2023-07-30T04:22:31;22.43;55.09
74416;SHT31;62850;42.428;25.618;2023-07-30T04:24:57;22.51;54.70
74416;SHT31;62850;42.428;25.618;2023-07-30T04:27:22;22.60;53.69
74416;SHT31;62850;42.428;25.618;2023-07-30T04:29:48;22.72;53.03
74416;SHT31;62850;42.428;25.618;2023-07-30T04:32:14;22.86;52.42
74416;SHT31;62850;42.428;25.618;2023-07-30T04:34:39;22.92;51.93
74416;SHT31;62850;42.428;25.618;2023-07-30T04:37:05;23.05;51.19
74416;SHT31;62850;42.428;25.618;2023-07-30T04:39:35;23.12;51.57
74416;SHT31;62850;42.428;25.618;2023-07-30T04:42:00;23.23;51.14
74416;SHT31;62850;42.428;25.618;2023-07-30T04:44:26;23.26;50.86
74416;SHT31;62850;42.428;25.618;2023-07-30T04:46:51;23.26;51.04
74416;SHT31;62850;42.428;25.618;2023-07-30T04:49:17;23.41;50.80
74416;SHT31;62850;42.428;25.618;2023-07-30T04:51:44;23.43;51.02
74416;SHT31;62850;42.428;25.618;2023-07-30T04:54:09;23.43;50.99
74416;SHT31;62850;42.428;25.618;2023-07-30T04:56:35;23.57;50.59
74416;SHT31;62850;42.428;25.618;2023-07-30T04:59:01;23.65;51.08
74416;SHT31;62850;42.428;25.618;2023-07-30T05:01:26;23.69;50.86
74416;SHT31;62850;42.428;25.618;2023-07-30T05:03:52;23.71;50.78
74416;SHT31;62850;42.428;25.618;2023-07-30T05:06:18;23.67;51.16
74416;SHT31;62850;42.428;25.618;2023-07-30T05:08:43;23.76;51.09
74416;SHT31;62850;42.428;25.618;2023-07-30T05:11:09;23.87;50.84
74416;SHT31;62850;42.428;25.618;2023-07-30T05:13:34;23.92;51.03
74416;SHT31;62850;42.428;25.618;2023-07-30T05:16:00;23.96;50.66
74416;SHT31;62850;42.428;25.618;2023-07-30T05:18:27;24.06;50.69
74416;SHT31;62850;42.428;25.618;2023-07-30T05:20:52;24.10;50.19
74416;SHT31;62850;42.428;25.618;2023-07-30T05:23:17;24.15;49.87
74416;SHT31;62850;42.428;25.618;2023-07-30T05:25:43;24.25;49.85
74416;SHT31;62850;42.428;25.618;2023-07-30T05:28:08;24.28;50.13
74416;SHT31;62850;42.428;25.618;2023-07-30T05:30:34;24.35;50.42
74416;SHT31;62850;42.428;25.618;2023-07-30T05:32:59;24.31;50.40
74416;SHT31;62850;42.428;25.618;2023-07-30T05:35:25;24.36;50.28
74416;SHT31;62850;42.428;25.618;2023-07-30T05:37:50;24.44;49.66
74416;SHT31;62850;42.428;25.618;2023-07-30T05:40:16;24.52;49.35
74416;SHT31;62850;42.428;25.618;2023-07-30T05:42:41;24.58;49.49
74416;SHT31;62850;42.428;25.618;2023-07-30T05:45:07;24.65;49.27
74416;SHT31;62850;42.428;25.618;2023-07-30T05:47:33;24.68;49.11
74416;SHT31;62850;42.428;25.618;2023-07-30T05:49:59;24.69;48.61
74416;SHT31;62850;42.428;25.618;2023-07-30T05:52:24;24.73;48.32
74416;SHT31;62850;42.428;25.618;2023-07-30T05:54:50;24.80;48.06
74416;SHT31;62850;42.428;25.618;2023-07-30T05:57:15;24.90;47.82
74416;SHT31;62850;42.428;25.618;2023-07-30T05:59:41;24.90;47.73
74416;SHT31;62850;42.428;25.618;2023-07-30T06:02:06;25.02;47.64
74416;SHT31;62850;42.428;25.618;2023-07-30T06:04:32;25.09;47.70
74416;SHT31;62850;42.428;25.618;2023-07-30T06:07:02;25.12;47.09
74416;SHT31;62850;42.428;25.618;2023-07-30T06:09:28;25.14;45.61
74416;SHT31;62850;42.428;25.618;2023-07-30T06:11:56;25.13;45.99
74416;SHT31;62850;42.428;25.618;2023-07-30T06:14:22;25.23;46.15
74416;SHT31;62850;42.428;25.618;2023-07-30T06:16:47;25.30;46.37
74416;SHT31;62850;42.428;25.618;2023-07-30T06:19:13;25.41;46.30
74416;SHT31;62850;42.428;25.618;2023-07-30T06:21:38;25.45;46.09
74416;SHT31;62850;42.428;25.618;2023-07-30T06:24:04;25.54;45.85
74416;SHT31;62850;42.428;25.618;2023-07-30T06:26:29;25.67;45.83
74416;SHT31;62850;42.428;25.618;2023-07-30T06:28:55;25.72;45.70
74416;SHT31;62850;42.428;25.618;2023-07-30T06:31:20;25.78;45.71
74416;SHT31;62850;42.428;25.618;2023-07-30T06:33:46;25.82;45.73
74416;SHT31;62850;42.428;25.618;2023-07-30T06:36:11;25.92;45.55
74416;SHT31;62850;42.428;25.618;2023-07-30T06:38:37;25.99;45.55
74416;SHT31;62850;42.428;25.618;2023-07-30T06:41:02;26.06;45.67
74416;SHT31;62850;42.428;25.618;2023-07-30T06:43:28;26.16;45.05
74416;SHT31;62850;42.428;25.618;2023-07-30T06:45:54;26.22;45.31
74416;SHT31;62850;42.428;25.618;2023-07-30T06:48:20;26.29;45.21
74416;SHT31;62850;42.428;25.618;2023-07-30T06:50:46;26.37;45.21
74416;SHT31;62850;42.428;25.618;2023-07-30T06:53:12;26.44;44.70
74416;SHT31;62850;42.428;25.618;2023-07-30T06:55:38;26.49;44.79
74416;SHT31;62850;42.428;25.618;2023-07-30T06:58:06;26.56;44.14
74416;SHT31;62850;42.428;25.618;2023-07-30T07:00:31;26.54;44.50
74416;SHT31;62850;42.428;25.618;2023-07-30T07:02:57;26.64;44.36
74416;SHT31;62850;42.428;25.618;2023-07-30T07:05:23;26.79;43.95
74416;SHT31;62850;42.428;25.618;2023-07-30T07:07:48;26.86;43.99
74416;SHT31;62850;42.428;25.618;2023-07-30T07:10:14;27.01;43.26
74416;SHT31;62850;42.428;25.618;2023-07-30T07:12:40;27.14;43.66
74416;SHT31;62850;42.428;25.618;2023-07-30T07:15:06;27.16;42.85
74416;SHT31;62850;42.428;25.618;2023-07-30T07:17:31;27.27;42.69
74416;SHT31;62850;42.428;25.618;2023-07-30T07:19:57;27.32;42.58
74416;SHT31;62850;42.428;25.618;2023-07-30T07:22:23;27.43;42.63
74416;SHT31;62850;42.428;25.618;2023-07-30T07:24:49;27.55;42.54
74416;SHT31;62850;42.428;25.618;2023-07-30T07:27:17;27.67;41.74
74416;SHT31;62850;42.428;25.618;2023-07-30T07:29:43;27.74;42.39
74416;SHT31;62850;42.428;25.618;2023-07-30T07:32:08;27.80;42.13
74416;SHT31;62850;42.428;25.618;2023-07-30T07:34:34;27.89;41.87
74416;SHT31;62850;42.428;25.618;2023-07-30T07:36:59;27.99;41.23
74416;SHT31;62850;42.428;25.618;2023-07-30T07:39:25;28.18;40.35
74416;SHT31;62850;42.428;25.618;2023-07-30T07:41:50;28.27;40.23
74416;SHT31;62850;42.428;25.618;2023-07-30T07:44:16;28.40;40.05
74416;SHT31;62850;42.428;25.618;2023-07-30T07:46:41;28.62;39.86
74416;SHT31;62850;42.428;25.618;2023-07-30T07:49:07;28.89;39.55
74416;SHT31;62850;42.428;25.618;2023-07-30T07:51:34;29.19;38.59
74416;SHT31;62850;42.428;25.618;2023-07-30T07:53:59;29.44;37.59
74416;SHT31;62850;42.428;25.618;2023-07-30T07:56:25;29.73;37.18
74416;SHT31;62850;42.428;25.618;2023-07-30T07:58:50;29.94;36.79
74416;SHT31;62850;42.428;25.618;2023-07-30T08:01:16;30.15;36.56
74416;SHT31;62850;42.428;25.618;2023-07-30T08:03:41;30.08;36.30
74416;SHT31;62850;42.428;25.618;2023-07-30T08:06:07;30.23;36.27
74416;SHT31;62850;42.428;25.618;2023-07-30T08:08:32;30.49;36.07
74416;SHT31;62850;42.428;25.618;2023-07-30T08:10:58;30.62;35.85
74416;SHT31;62850;42.428;25.618;2023-07-30T08:13:24;30.83;35.25
74416;SHT31;62850;42.428;25.618;2023-07-30T08:15:49;30.98;34.69
74416;SHT31;62850;42.428;25.618;2023-07-30T08:18:15;31.18;34.89
74416;SHT31;62850;42.428;25.618;2023-07-30T08:20:40;31.51;34.24
74416;SHT31;62850;42.428;25.618;2023-07-30T08:23:06;31.57;34.20
74416;SHT31;62850;42.428;25.618;2023-07-30T08:25:32;31.78;34.04
74416;SHT31;62850;42.428;25.618;2023-07-30T08:27:57;32.06;33.35
74416;SHT31;62850;42.428;25.618;2023-07-30T08:30:23;32.21;33.81
74416;SHT31;62850;42.428;25.618;2023-07-30T08:32:48;32.14;33.25
74416;SHT31;62850;42.428;25.618;2023-07-30T08:35:14;32.30;33.28
74416;SHT31;62850;42.428;25.618;2023-07-30T08:37:39;32.21;32.89
74416;SHT31;62850;42.428;25.618;2023-07-30T08:40:05;32.43;32.59
74416;SHT31;62850;42.428;25.618;2023-07-30T08:42:31;32.44;32.44
74416;SHT31;62850;42.428;25.618;2023-07-30T08:44:58;32.48;32.85
74416;SHT31;62850;42.428;25.618;2023-07-30T08:47:25;32.70;32.98
74416;SHT31;62850;42.428;25.618;2023-07-30T08:49:50;33.04;31.69
74416;SHT31;62850;42.428;25.618;2023-07-30T08:52:16;33.19;31.53
74416;SHT31;62850;42.428;25.618;2023-07-30T08:54:44;33.33;31.90
74416;SHT31;62850;42.428;25.618;2023-07-30T08:57:11;33.45;31.54
74416;SHT31;62850;42.428;25.618;2023-07-30T08:59:40;33.53;31.28
74416;SHT31;62850;42.428;25.618;2023-07-30T09:02:08;33.55;31.37
74416;SHT31;62850;42.428;25.618;2023-07-30T09:04:36;33.59;31.45
74416;SHT31;62850;42.428;25.618;2023-07-30T09:07:02;33.73;30.24
74416;SHT31;62850;42.428;25.618;2023-07-30T09:09:28;33.69;31.16
74416;SHT31;62850;42.428;25.618;2023-07-30T09:11:54;33.66;31.01
74416;SHT31;62850;42.428;25.618;2023-07-30T09:14:20;33.74;30.47
74416;SHT31;62850;42.428;25.618;2023-07-30T09:16:56;33.90;30.09
74416;SHT31;62850;42.428;25.618;2023-07-30T09:19:22;34.04;30.50
74416;SHT31;62850;42.428;25.618;2023-07-30T09:21:47;34.03;30.75
74416;SHT31;62850;42.428;25.618;2023-07-30T09:24:21;34.15;30.26
74416;SHT31;62850;42.428;25.618;2023-07-30T09:26:46;34.34;30.10
74416;SHT31;62850;42.428;25.618;2023-07-30T09:29:12;34.47;29.01
74416;SHT31;62850;42.428;25.618;2023-07-30T09:31:49;34.41;29.38
74416;SHT31;62850;42.428;25.618;2023-07-30T09:34:21;34.44;29.20
74416;SHT31;62850;42.428;25.618;2023-07-30T09:36:47;34.52;29.53
74416;SHT31;62850;42.428;25.618;2023-07-30T09:39:17;34.48;28.91
74416;SHT31;62850;42.428;25.618;2023-07-30T09:41:44;34.54;28.30
74416;SHT31;62850;42.428;25.618;2023-07-30T09:44:10;34.20;29.07
74416;SHT31;62850;42.428;25.618;2023-07-30T09:46:42;34.20;29.35
74416;SHT31;62850;42.428;25.618;2023-07-30T09:49:09;34.13;29.55
74416;SHT31;62850;42.428;25.618;2023-07-30T09:51:39;34.07;29.69
74416;SHT31;62850;42.428;25.618;2023-07-30T09:54:11;34.15;29.02
74416;SHT31;62850;42.428;25.618;2023-07-30T09:56:37;34.01;29.12
74416;SHT31;62850;42.428;25.618;2023-07-30T09:59:07;34.08;28.73
74416;SHT31;62850;42.428;25.618;2023-07-30T10:01:37;33.98;27.84
74416;SHT31;62850;42.428;25.618;2023-07-30T10:04:07;33.87;28.06
74416;SHT31;62850;42.428;25.618;2023-07-30T10:06:43;34.03;28.78
74416;SHT31;62850;42.428;25.618;2023-07-30T10:09:11;34.03;28.50
74416;SHT31;62850;42.428;25.618;2023-07-30T10:11:39;34.07;28.50
74416;SHT31;62850;42.428;25.618;2023-07-30T10:14:05;34.18;28.66
74416;SHT31;62850;42.428;25.618;2023-07-30T10:16:31;34.18;28.06
74416;SHT31;62850;42.428;25.618;2023-07-30T10:18:57;34.18;28.64
74416;SHT31;62850;42.428;25.618;2023-07-30T10:21:25;34.37;28.09
74416;SHT31;62850;42.428;25.618;2023-07-30T10:24:17;34.55;28.75
74416;SHT31;62850;42.428;25.618;2023-07-30T10:26:42;34.49;28.50
74416;SHT31;62850;42.428;25.618;2023-07-30T10:31:56;34.62;28.57
74416;SHT31;62850;42.428;25.618;2023-07-30T10:34:26;34.79;27.90
74416;SHT31;62850;42.428;25.618;2023-07-30T10:36:55;34.73;28.62
74416;SHT31;62850;42.428;25.618;2023-07-30T10:39:29;34.62;27.90
74416;SHT31;62850;42.428;25.618;2023-07-30T10:41:57;34.59;28.38
74416;SHT31;62850;42.428;25.618;2023-07-30T10:44:33;34.59;27.52
74416;SHT31;62850;42.428;25.618;2023-07-30T10:47:00;34.79;27.23
74416;SHT31;62850;42.428;25.618;2023-07-30T10:49:26;34.82;26.80
74416;SHT31;62850;42.428;25.618;2023-07-30T10:51:56;34.75;27.05
74416;SHT31;62850;42.428;25.618;2023-07-30T10:54:22;34.83;27.62
74416;SHT31;62850;42.428;25.618;2023-07-30T10:56:48;34.86;27.40
74416;SHT31;62850;42.428;25.618;2023-07-30T10:59:14;35.04;26.93
74416;SHT31;62850;42.428;25.618;2023-07-30T11:01:44;35.10;27.05
74416;SHT31;62850;42.428;25.618;2023-07-30T11:04:14;35.14;26.79
74416;SHT31;62850;42.428;25.618;2023-07-30T11:06:45;35.10;27.10
74416;SHT31;62850;42.428;25.618;2023-07-30T11:09:25;34.98;26.88
74416;SHT31;62850;42.428;25.618;2023-07-30T11:11:52;35.09;27.22
74416;SHT31;62850;42.428;25.618;2023-07-30T11:14:23;35.25;27.47
74416;SHT31;62850;42.428;25.618;2023-07-30T11:16:56;35.44;27.14
74416;SHT31;62850;42.428;25.618;2023-07-30T11:19:23;35.36;26.73
74416;SHT31;62850;42.428;25.618;2023-07-30T11:21:50;35.10;26.99
74416;SHT31;62850;42.428;25.618;2023-07-30T11:24:16;35.30;26.98
74416;SHT31;62850;42.428;25.618;2023-07-30T11:26:42;35.36;26.96
74416;SHT31;62850;42.428;25.618;2023-07-30T11:29:15;35.61;26.68
74416;SHT31;62850;42.428;25.618;2023-07-30T11:31:42;35.70;25.79
74416;SHT31;62850;42.428;25.618;2023-07-30T11:34:09;35.81;26.52
74416;SHT31;62850;42.428;25.618;2023-07-30T11:36:34;35.78;26.95
74416;SHT31;62850;42.428;25.618;2023-07-30T11:39:00;35.82;26.68
74416;SHT31;62850;42.428;25.618;2023-07-30T11:41:26;35.76;26.28
74416;SHT31;62850;42.428;25.618;2023-07-30T11:43:53;35.81;25.94
74416;SHT31;62850;42.428;25.618;2023-07-30T11:46:19;35.74;25.79
74416;SHT31;62850;42.428;25.618;2023-07-30T11:48:49;35.76;25.96
74416;SHT31;62850;42.428;25.618;2023-07-30T11:51:25;35.73;26.22
74416;SHT31;62850;42.428;25.618;2023-07-30T11:53:53;35.74;26.62
74416;SHT31;62850;42.428;25.618;2023-07-30T11:56:27;35.88;26.24
74416;SHT31;62850;42.428;25.618;2023-07-30T11:58:59;36.06;26.17
74416;SHT31;62850;42.428;25.618;2023-07-30T12:01:28;36.26;26.42
74416;SHT31;62850;42.428;25.618;2023-07-30T12:03:58;36.36;25.99
74416;SHT31;62850;42.428;25.618;2023-07-30T12:06:24;36.24;25.58
74416;SHT31;62850;42.428;25.618;2023-07-30T12:09:18;36.33;25.81
74416;SHT31;62850;42.428;25.618;2023-07-30T12:11:57;36.35;25.92
74416;SHT31;62850;42.428;25.618;2023-07-30T12:15:12;36.31;25.81
74416;SHT31;62850;42.428;25.618;2023-07-30T12:17:13;36.32;25.49
74416;SHT31;62850;42.428;25.618;2023-07-30T12:19:38;36.38;25.87
74416;SHT31;62850;42.428;25.618;2023-07-30T12:22:05;36.48;26.05
74416;SHT31;62850;42.428;25.618;2023-07-30T12:24:31;36.70;25.66
74416;SHT31;62850;42.428;25.618;2023-07-30T12:26:56;36.73;25.27
74416;SHT31;62850;42.428;25.618;2023-07-30T12:29:22;36.84;25.34
74416;SHT31;62850;42.428;25.618;2023-07-30T12:31:48;36.87;24.44
74416;SHT31;62850;42.428;25.618;2023-07-30T12:34:14;36.70;25.33
74416;SHT31;62850;42.428;25.618;2023-07-30T12:36:40;36.76;24.33
74416;SHT31;62850;42.428;25.618;2023-07-30T12:39:05;37.00;24.39
74416;SHT31;62850;42.428;25.618;2023-07-30T12:41:32;37.11;25.43
74416;SHT31;62850;42.428;25.618;2023-07-30T12:43:58;37.03;25.26
74416;SHT31;62850;42.428;25.618;2023-07-30T12:46:23;37.00;24.83
74416;SHT31;62850;42.428;25.618;2023-07-30T12:48:49;36.88;24.40
74416;SHT31;62850;42.428;25.618;2023-07-30T12:51:14;36.76;24.81
74416;SHT31;62850;42.428;25.618;2023-07-30T12:53:40;36.77;24.61
74416;SHT31;62850;42.428;25.618;2023-07-30T12:56:06;36.93;24.60
74416;SHT31;62850;42.428;25.618;2023-07-30T12:58:31;37.04;24.50
74416;SHT31;62850;42.428;25.618;2023-07-30T13:00:57;37.25;24.25
74416;SHT31;62850;42.428;25.618;2023-07-30T13:03:22;37.42;25.01
74416;SHT31;62850;42.428;25.618;2023-07-30T13:05:48;37.37;24.67
74416;SHT31;62850;42.428;25.618;2023-07-30T13:08:13;37.48;24.95
74416;SHT31;62850;42.428;25.618;2023-07-30T13:10:38;37.61;24.76
74416;SHT31;62850;42.428;25.618;2023-07-30T13:13:04;37.76;24.31
74416;SHT31;62850;42.428;25.618;2023-07-30T13:15:29;37.69;24.24
74416;SHT31;62850;42.428;25.618;2023-07-30T13:17:55;37.71;24.38
74416;SHT31;62850;42.428;25.618;2023-07-30T13:20:20;37.60;24.27
74416;SHT31;62850;42.428;25.618;2023-07-30T13:22:46;37.78;23.82
74416;SHT31;62850;42.428;25.618;2023-07-30T13:25:11;37.86;24.01
74416;SHT31;62850;42.428;25.618;2023-07-30T13:27:37;37.81;24.06
74416;SHT31;62850;42.428;25.618;2023-07-30T13:30:03;38.01;24.11
74416;SHT31;62850;42.428;25.618;2023-07-30T13:32:28;38.17;24.15
74416;SHT31;62850;42.428;25.618;2023-07-30T13:34:54;38.32;23.95
74416;SHT31;62850;42.428;25.618;2023-07-30T13:37:19;38.34;23.18
74416;SHT31;62850;42.428;25.618;2023-07-30T13:39:45;38.44;23.86
74416;SHT31;62850;42.428;25.618;2023-07-30T13:42:11;38.34;23.70
74416;SHT31;62850;42.428;25.618;2023-07-30T13:44:36;38.41;23.17
74416;SHT31;62850;42.428;25.618;2023-07-30T13:47:02;38.27;22.88
74416;SHT31;62850;42.428;25.618;2023-07-30T13:49:27;38.20;23.37
74416;SHT31;62850;42.428;25.618;2023-07-30T13:51:53;38.01;23.94
74416;SHT31;62850;42.428;25.618;2023-07-30T13:54:18;37.81;24.43
74416;SHT31;62850;42.428;25.618;2023-07-30T13:56:44;37.81;23.27
74416;SHT31;62850;42.428;25.618;2023-07-30T13:59:09;37.74;23.97
74416;SHT31;62850;42.428;25.618;2023-07-30T14:01:35;37.85;24.29
74416;SHT31;62850;42.428;25.618;2023-07-30T14:04:01;37.76;24.44
74416;SHT31;62850;42.428;25.618;2023-07-30T14:06:26;37.72;24.62
74416;SHT31;62850;42.428;25.618;2023-07-30T14:08:52;37.74;24.83
74416;SHT31;62850;42.428;25.618;2023-07-30T14:11:18;37.61;23.78
74416;SHT31;62850;42.428;25.618;2023-07-30T14:13:43;37.34;24.53
74416;SHT31;62850;42.428;25.618;2023-07-30T14:16:09;37.25;24.74
74416;SHT31;62850;42.428;25.618;2023-07-30T14:18:35;37.21;24.64
74416;SHT31;62850;42.428;25.618;2023-07-30T14:21:01;37.34;24.74
74416;SHT31;62850;42.428;25.618;2023-07-30T14:23:28;37.27;24.57
74416;SHT31;62850;42.428;25.618;2023-07-30T14:25:53;37.25;24.39
74416;SHT31;62850;42.428;25.618;2023-07-30T14:28:18;37.23;24.56
74416;SHT31;62850;42.428;25.618;2023-07-30T14:30:44;37.25;24.67
74416;SHT31;62850;42.428;25.618;2023-07-30T14:33:10;37.35;24.65
74416;SHT31;62850;42.428;25.618;2023-07-30T14:35:36;37.27;24.72
74416;SHT31;62850;42.428;25.618;2023-07-30T14:38:04;37.27;24.67
74416;SHT31;62850;42.428;25.618;2023-07-30T14:40:30;37.18;25.10
74416;SHT31;62850;42.428;25.618;2023-07-30T14:42:55;37.20;24.22
74416;SHT31;62850;42.428;25.618;2023-07-30T14:45:21;37.11;24.63
74416;SHT31;62850;42.428;25.618;2023-07-30T14:47:46;37.08;24.23
74416;SHT31;62850;42.428;25.618;2023-07-30T14:50:12;36.98;24.36
74416;SHT31;62850;42.428;25.618;2023-07-30T14:52:38;36.63;24.59
74416;SHT31;62850;42.428;25.618;2023-07-30T14:55:04;36.55;25.13
74416;SHT31;62850;42.428;25.618;2023-07-30T14:57:29;36.52;26.14
74416;SHT31;62850;42.428;25.618;2023-07-30T14:59:55;36.43;24.81
74416;SHT31;62850;42.428;25.618;2023-07-30T15:02:21;36.39;25.07
74416;SHT31;62850;42.428;25.618;2023-07-30T15:04:47;36.25;24.69
74416;SHT31;62850;42.428;25.618;2023-07-30T15:07:12;36.18;25.52
74416;SHT31;62850;42.428;25.618;2023-07-30T15:09:38;36.22;25.68
74416;SHT31;62850;42.428;25.618;2023-07-30T15:12:05;36.22;25.69
74416;SHT31;62850;42.428;25.618;2023-07-30T15:14:34;36.24;26.05